Terminal Aerodrome Forecast
Issued by NWS San Angelo, TX

Home | Current Version | Previous Version | Text Only | Print | Product List | Glossary On
Versions: 1 2 3 4 5 6 7 8 9 10 11 12
730
FTUS44 KSJT 272320
TAFSJT
TAF
KSJT 272320Z 2800/2824 VRB05KT P6SM SKC
     FM280300 11007KT P6SM SKC
     FM280800 14011G18KT P6SM BKN015
     FM281400 15013G22KT P6SM OVC020
     FM281800 18014G23KT P6SM BKN030
     FM282000 19014G24KT P6SM BKN040=

USA.gov is the U.S. government's official web portal to all federal, state and local government web resources and services.